Terminal Aerodrome Forecast
Issued by NWS Charleston, WV

Current Version | Previous Version | Graphics & Text | Print | Product List | Glossary On
Versions: 1 2 3 4 5 6 7 8 9 10 11 12 13 14 15 16 17 18 19 20 21 22 23 24 25 26
000
FTUS41 KRLX 261400 AAA
TAFEKN
TAF AMD
KEKN 261434Z 2615/2712 19010KT P6SM BKN060
     FM261600 23014G25KT P6SM BKN050
     FM261900 24013G23KT P6SM VCTS BKN045CB
     FM262200 27011G20KT 4SM -SHRA BKN035
     FM270000 31010G18KT 3SM -SHRA OVC015
     FM270200 31009G14KT 4SM -SHRA BR OVC015
     FM270900 31006KT 3SM -RASN BR BKN015=

USA.gov is the U.S. government's official web portal to all federal, state and local government web resources and services.